createdAt,value
2017-10-23T00:00:11.682Z,1005
2017-10-23T00:01:14.120Z,1005
2017-10-23T00:02:16.494Z,1005
2017-10-23T00:03:18.870Z,1005
2017-10-23T00:04:21.238Z,1005
2017-10-23T00:05:23.628Z,1005
2017-10-23T00:06:26.003Z,1004.9
2017-10-23T00:07:28.749Z,1004.9
2017-10-23T00:08:31.121Z,1005
2017-10-23T00:09:33.497Z,1005
2017-10-23T00:10:35.871Z,1004.9
2017-10-23T00:11:38.247Z,1004.9
2017-10-23T00:12:40.610Z,1004.9
2017-10-23T00:13:42.987Z,1004.9
2017-10-23T00:14:45.370Z,1004.9
2017-10-23T00:15:48.130Z,1004.9
2017-10-23T00:16:50.511Z,1004.9
2017-10-23T00:17:52.884Z,1005
2017-10-23T00:18:55.610Z,1004.9
2017-10-23T00:19:57.986Z,1004.9
2017-10-23T00:21:00.623Z,1004.9
2017-10-23T00:22:02.985Z,1005
2017-10-23T00:23:05.375Z,1004.9
2017-10-23T00:24:07.734Z,1005
2017-10-23T00:25:10.119Z,1005
2017-10-23T00:26:12.752Z,1004.9
2017-10-23T00:27:15.136Z,1004.9
2017-10-23T00:28:17.510Z,1004.9
2017-10-23T00:29:19.887Z,1004.9
2017-10-23T00:30:22.269Z,1004.9
2017-10-23T00:31:24.637Z,1004.9
2017-10-23T00:32:27.019Z,1004.9
2017-10-23T00:33:29.390Z,1004.9
2017-10-23T00:34:31.768Z,1005
2017-10-23T00:35:34.141Z,1005
2017-10-23T00:36:36.523Z,1004.9
2017-10-23T00:37:38.902Z,1004.9
2017-10-23T00:38:41.479Z,1005
2017-10-23T00:39:44.208Z,1004.9
2017-10-23T00:40:46.578Z,1005
2017-10-23T00:41:48.953Z,1005
2017-10-23T00:42:51.326Z,1005
2017-10-23T00:43:53.701Z,1005
2017-10-23T00:44:56.082Z,1005
2017-10-23T00:45:58.815Z,1005
2017-10-23T00:47:01.186Z,1005
2017-10-23T00:48:03.564Z,1005
2017-10-23T00:49:05.943Z,1004.9
2017-10-23T00:50:08.319Z,1005
2017-10-23T00:51:10.692Z,1004.9
2017-10-23T00:52:13.066Z,1004.9
2017-10-23T00:53:15.437Z,1005
2017-10-23T00:54:18.352Z,1004.9
2017-10-23T00:55:20.724Z,1005
2017-10-23T00:56:23.097Z,1005
2017-10-23T00:57:25.488Z,1004.9
2017-10-23T00:58:27.861Z,1004.9
2017-10-23T00:59:30.237Z,1004.9
2017-10-23T01:00:32.606Z,1004.9
2017-10-23T01:01:34.981Z,1004.9
2017-10-23T01:02:37.356Z,1004.9
2017-10-23T01:03:40.512Z,1004.9
2017-10-23T01:04:42.902Z,1004.9
2017-10-23T01:05:45.279Z,1004.9
2017-10-23T01:06:47.646Z,1004.9
2017-10-23T01:07:50.032Z,1004.9
2017-10-23T01:08:52.408Z,1004.9
2017-10-23T01:09:54.790Z,1004.9
2017-10-23T01:10:57.171Z,1004.9
2017-10-23T01:11:59.544Z,1004.8
2017-10-23T01:13:01.917Z,1004.8
2017-10-23T01:14:04.303Z,1004.8
2017-10-23T01:15:06.672Z,1004.8
2017-10-23T01:16:09.291Z,1004.8
2017-10-23T01:17:11.975Z,1004.7
2017-10-23T01:18:14.354Z,1004.8
2017-10-23T01:19:16.733Z,1004.7
2017-10-23T01:20:19.113Z,1004.7
2017-10-23T01:21:21.482Z,1004.8
2017-10-23T01:22:23.859Z,1004.7
2017-10-23T01:23:26.243Z,1004.7
2017-10-23T01:24:28.617Z,1004.7
2017-10-23T01:25:30.994Z,1004.7
2017-10-23T01:26:33.366Z,1004.7
2017-10-23T01:27:35.732Z,1004.7
2017-10-23T01:28:38.125Z,1004.7
2017-10-23T01:29:40.499Z,1004.7
2017-10-23T01:30:42.874Z,1004.7
2017-10-23T01:31:45.243Z,1004.7
2017-10-23T01:32:47.618Z,1004.7
2017-10-23T01:33:49.997Z,1004.7
2017-10-23T01:34:52.372Z,1004.7
2017-10-23T01:35:54.860Z,1004.7
2017-10-23T01:36:57.613Z,1004.7
2017-10-23T01:38:00.872Z,1004.7
2017-10-23T01:39:03.686Z,1004.8
2017-10-23T01:40:06.059Z,1004.8
2017-10-23T01:41:08.426Z,1004.8
2017-10-23T01:42:10.798Z,1004.8
2017-10-23T01:43:13.509Z,1004.8
2017-10-23T01:44:15.882Z,1004.9
2017-10-23T01:45:18.259Z,1004.8
2017-10-23T01:46:20.638Z,1004.9
2017-10-23T01:47:23.016Z,1004.9
2017-10-23T01:48:25.377Z,1004.9
2017-10-23T01:49:27.747Z,1004.8
2017-10-23T01:50:30.119Z,1004.8
2017-10-23T01:51:32.485Z,1004.9
2017-10-23T01:52:35.213Z,1004.9
2017-10-23T01:53:37.588Z,1004.9
2017-10-23T01:54:39.949Z,1004.9
2017-10-23T01:55:42.332Z,1004.9
2017-10-23T01:56:44.705Z,1004.8
2017-10-23T01:57:47.077Z,1004.8
2017-10-23T01:58:49.453Z,1004.9
2017-10-23T01:59:51.828Z,1004.8
2017-10-23T02:00:54.204Z,1004.8
2017-10-23T02:01:56.565Z,1004.8
2017-10-23T02:02:59.300Z,1004.8
2017-10-23T02:04:01.670Z,1004.8
2017-10-23T02:05:04.037Z,1004.7
2017-10-23T02:06:06.416Z,1004.8
2017-10-23T02:07:09.145Z,1004.8
2017-10-23T02:08:11.525Z,1004.8
2017-10-23T02:09:13.903Z,1004.8
2017-10-23T02:10:16.278Z,1004.8
2017-10-23T02:11:18.652Z,1004.8
2017-10-23T02:12:21.023Z,1004.8
2017-10-23T02:13:23.395Z,1004.8
2017-10-23T02:14:25.771Z,1004.8
2017-10-23T02:15:28.156Z,1004.8
2017-10-23T02:16:30.513Z,1004.8
2017-10-23T02:17:32.885Z,1004.8
2017-10-23T02:18:35.270Z,1004.8
2017-10-23T02:19:37.636Z,1004.8
2017-10-23T02:20:40.009Z,1004.8
2017-10-23T02:21:42.725Z,1004.8
2017-10-23T02:22:45.453Z,1004.8
2017-10-23T02:23:47.849Z,1004.8
2017-10-23T02:24:50.231Z,1004.7
2017-10-23T02:25:52.588Z,1004.7
2017-10-23T02:26:54.969Z,1004.7
2017-10-23T02:27:57.353Z,1004.7
2017-10-23T02:28:59.738Z,1004.8
2017-10-23T02:30:02.094Z,1004.7
2017-10-23T02:31:04.474Z,1004.7
2017-10-23T02:32:06.841Z,1004.7
2017-10-23T02:33:09.219Z,1004.7
2017-10-23T02:34:11.593Z,1004.7
2017-10-23T02:35:14.337Z,1004.7
2017-10-23T02:36:16.702Z,1004.7
2017-10-23T02:37:19.085Z,1004.8
2017-10-23T02:38:21.453Z,1004.8
2017-10-23T02:39:23.821Z,1004.8
2017-10-23T02:40:26.197Z,1004.7
2017-10-23T02:41:28.567Z,1004.7
2017-10-23T02:42:30.933Z,1004.8
2017-10-23T02:43:33.317Z,1004.7
2017-10-23T02:44:35.686Z,1004.8
2017-10-23T02:45:38.058Z,1004.8
2017-10-23T02:46:40.791Z,1004.8
2017-10-23T02:47:43.165Z,1004.8
2017-10-23T02:48:45.533Z,1004.8
2017-10-23T02:49:47.918Z,1004.8
2017-10-23T02:50:50.288Z,1004.8
2017-10-23T02:51:52.678Z,1004.8
2017-10-23T02:52:55.050Z,1004.8
2017-10-23T02:53:57.425Z,1004.8
2017-10-23T02:54:59.808Z,1004.8
2017-10-23T02:56:02.198Z,1004.8
2017-10-23T02:57:04.542Z,1004.9
2017-10-23T02:58:06.908Z,1004.9
2017-10-23T02:59:09.282Z,1004.8
2017-10-23T03:00:11.651Z,1004.9
2017-10-23T03:01:14.034Z,1004.9
2017-10-23T03:02:16.416Z,1004.9
2017-10-23T03:03:18.786Z,1004.9
2017-10-23T03:04:21.163Z,1004.9
2017-10-23T03:05:23.538Z,1004.9
2017-10-23T03:06:25.905Z,1004.8
2017-10-23T03:07:28.277Z,1004.9
2017-10-23T03:08:30.992Z,1004.9
2017-10-23T03:09:33.355Z,1004.9
2017-10-23T03:10:35.750Z,1004.9
2017-10-23T03:11:38.491Z,1004.9
2017-10-23T03:12:40.868Z,1004.9
2017-10-23T03:13:43.244Z,1004.9
2017-10-23T03:14:45.606Z,1004.9
2017-10-23T03:15:48.728Z,1004.9
2017-10-23T03:16:51.101Z,1004.9
2017-10-23T03:17:53.465Z,1004.9
2017-10-23T03:18:55.845Z,1004.9
2017-10-23T03:19:58.212Z,1004.9
2017-10-23T03:21:00.933Z,1004.9
2017-10-23T03:22:03.320Z,1004.9
2017-10-23T03:23:05.679Z,1004.9
2017-10-23T03:24:08.433Z,1004.9
2017-10-23T03:25:10.826Z,1004.9
2017-10-23T03:26:13.185Z,1004.9
2017-10-23T03:27:15.553Z,1004.9
2017-10-23T03:28:17.928Z,1004.9
2017-10-23T03:29:20.307Z,1004.9
2017-10-23T03:30:22.684Z,1004.9
2017-10-23T03:31:25.063Z,1004.9
2017-10-23T03:32:27.442Z,1004.9
2017-10-23T03:33:29.814Z,1004.9
2017-10-23T03:34:32.176Z,1004.9
2017-10-23T03:35:34.562Z,1004.9
2017-10-23T03:36:36.927Z,1004.9
2017-10-23T03:37:39.304Z,1004.9
2017-10-23T03:38:41.677Z,1005
2017-10-23T03:39:44.051Z,1004.9
2017-10-23T03:40:46.420Z,1005
2017-10-23T03:41:48.810Z,1005
2017-10-23T03:42:51.173Z,1004.9
2017-10-23T03:43:53.542Z,1005
2017-10-23T03:44:55.918Z,1004.9
2017-10-23T03:45:58.342Z,1005
2017-10-23T03:47:00.720Z,1004.9
2017-10-23T03:48:03.102Z,1005
2017-10-23T03:49:05.458Z,1005
2017-10-23T03:50:07.847Z,1005
2017-10-23T03:51:10.252Z,1005
2017-10-23T03:52:12.599Z,1005
2017-10-23T03:53:14.974Z,1005
2017-10-23T03:54:17.706Z,1005
2017-10-23T03:55:20.075Z,1005
2017-10-23T03:56:22.460Z,1005
2017-10-23T03:57:24.838Z,1005
2017-10-23T03:58:27.202Z,1005
2017-10-23T03:59:29.572Z,1005.1
2017-10-23T04:00:31.960Z,1005
2017-10-23T04:01:34.329Z,1005
2017-10-23T04:02:36.710Z,1005
2017-10-23T04:03:39.094Z,1005
2017-10-23T04:04:41.471Z,1005
2017-10-23T04:05:44.189Z,1005.1
2017-10-23T04:06:46.569Z,1005.1
2017-10-23T04:07:48.929Z,1005
2017-10-23T04:08:51.316Z,1005
2017-10-23T04:09:53.689Z,1005
2017-10-23T04:10:56.417Z,1005.1
2017-10-23T04:11:58.794Z,1005.1
2017-10-23T04:13:01.161Z,1005.1
2017-10-23T04:14:03.528Z,1005.1
2017-10-23T04:15:05.917Z,1005.1
2017-10-23T04:16:08.289Z,1005.1
2017-10-23T04:17:10.662Z,1005.2
2017-10-23T04:18:13.042Z,1005.1
2017-10-23T04:19:15.414Z,1005.2
2017-10-23T04:20:17.787Z,1005.2
2017-10-23T04:21:20.168Z,1005.1
2017-10-23T04:22:22.527Z,1005.1
2017-10-23T04:23:24.906Z,1005.2
2017-10-23T04:24:27.647Z,1005.2
2017-10-23T04:25:30.023Z,1005.2
2017-10-23T04:26:32.406Z,1005.1
2017-10-23T04:27:34.791Z,1005.2
2017-10-23T04:28:37.182Z,1005.2
2017-10-23T04:29:39.550Z,1005.2
2017-10-23T04:30:41.917Z,1005.2
2017-10-23T04:31:44.296Z,1005.2
2017-10-23T04:32:46.660Z,1005.2
2017-10-23T04:33:49.034Z,1005.3
2017-10-23T04:34:51.413Z,1005.3
2017-10-23T04:35:53.788Z,1005.3
2017-10-23T04:36:56.161Z,1005.2
2017-10-23T04:37:58.539Z,1005.3
2017-10-23T04:39:00.920Z,1005.3
2017-10-23T04:40:03.288Z,1005.3
2017-10-23T04:41:06.041Z,1005.3
2017-10-23T04:42:08.415Z,1005.2
2017-10-23T04:43:11.134Z,1005.2
2017-10-23T04:44:13.509Z,1005.3
2017-10-23T04:45:15.881Z,1005.3
2017-10-23T04:46:18.617Z,1005.3
2017-10-23T04:47:20.996Z,1005.3
2017-10-23T04:48:23.362Z,1005.3
2017-10-23T04:49:25.731Z,1005.2
2017-10-23T04:50:28.098Z,1005.2
2017-10-23T04:51:30.818Z,1005.3
2017-10-23T04:52:33.229Z,1005.3
2017-10-23T04:53:35.607Z,1005.2
2017-10-23T04:54:37.987Z,1005.3
2017-10-23T04:55:40.360Z,1005.3
2017-10-23T04:56:42.739Z,1005.3
2017-10-23T04:57:45.107Z,1005.3
2017-10-23T04:58:47.476Z,1005.3
2017-10-23T04:59:49.860Z,1005.3
2017-10-23T05:00:52.237Z,1005.2
2017-10-23T05:01:54.610Z,1005.2
2017-10-23T05:02:57.336Z,1005.3
2017-10-23T05:03:59.711Z,1005.2
2017-10-23T05:05:02.098Z,1005.3
2017-10-23T05:06:04.809Z,1005.3
2017-10-23T05:07:07.175Z,1005.2
2017-10-23T05:08:09.554Z,1005.3
2017-10-23T05:09:11.940Z,1005.3
2017-10-23T05:10:14.304Z,1005.3
2017-10-23T05:11:16.686Z,1005.2
2017-10-23T05:12:19.061Z,1005.3
2017-10-23T05:13:21.778Z,1005.3
2017-10-23T05:14:24.151Z,1005.3
2017-10-23T05:15:26.528Z,1005.3
2017-10-23T05:16:28.903Z,1005.3
2017-10-23T05:17:31.289Z,1005.3
2017-10-23T05:18:33.667Z,1005.3
2017-10-23T05:19:36.035Z,1005.3
2017-10-23T05:20:38.419Z,1005.3
2017-10-23T05:21:40.789Z,1005.3
2017-10-23T05:22:43.156Z,1005.3
2017-10-23T05:23:45.534Z,1005.3
2017-10-23T05:24:47.906Z,1005.3
2017-10-23T05:25:50.286Z,1005.3
2017-10-23T05:26:52.659Z,1005.3
2017-10-23T05:27:55.043Z,1005.3
2017-10-23T05:28:57.417Z,1005.3
2017-10-23T05:30:00.131Z,1005.4
2017-10-23T05:31:02.520Z,1005.4
2017-10-23T05:32:04.893Z,1005.4
2017-10-23T05:33:07.252Z,1005.3
2017-10-23T05:34:09.631Z,1005.4
2017-10-23T05:35:11.994Z,1005.4
2017-10-23T05:36:14.374Z,1005.4
2017-10-23T05:37:16.754Z,1005.4
2017-10-23T05:38:19.123Z,1005.4
2017-10-23T05:39:21.495Z,1005.4
2017-10-23T05:40:23.878Z,1005.4
2017-10-23T05:41:26.246Z,1005.3
2017-10-23T05:42:28.618Z,1005.4
2017-10-23T05:43:30.992Z,1005.3
2017-10-23T05:44:33.368Z,1005.4
2017-10-23T05:45:35.751Z,1005.3
2017-10-23T05:46:38.131Z,1005.3
2017-10-23T05:47:40.499Z,1005.4
2017-10-23T05:48:43.219Z,1005.4
2017-10-23T05:49:45.603Z,1005.4
2017-10-23T05:50:48.321Z,1005.4
2017-10-23T05:51:50.696Z,1005.4
2017-10-23T05:52:53.418Z,1005.5
2017-10-23T05:53:55.780Z,1005.5
2017-10-23T05:54:58.171Z,1005.5
2017-10-23T05:56:00.546Z,1005.5
2017-10-23T05:57:02.905Z,1005.5
2017-10-23T05:58:05.287Z,1005.5
2017-10-23T05:59:07.662Z,1005.5
2017-10-23T06:00:10.033Z,1005.5
2017-10-23T06:01:12.399Z,1005.5
2017-10-23T06:02:14.771Z,1005.5
2017-10-23T06:03:17.141Z,1005.5
2017-10-23T06:04:19.523Z,1005.5
2017-10-23T06:05:21.902Z,1005.5
2017-10-23T06:06:24.266Z,1005.6
2017-10-23T06:07:26.993Z,1005.5
2017-10-23T06:08:29.385Z,1005.5
2017-10-23T06:09:32.096Z,1005.6
2017-10-23T06:10:34.476Z,1005.6
2017-10-23T06:11:36.842Z,1005.5
2017-10-23T06:12:39.223Z,1005.6
2017-10-23T06:13:41.602Z,1005.6
2017-10-23T06:14:44.258Z,1005.6
2017-10-23T06:15:46.626Z,1005.6
2017-10-23T06:16:48.999Z,1005.7
2017-10-23T06:17:51.357Z,1005.6
2017-10-23T06:18:53.746Z,1005.7
2017-10-23T06:20:02.401Z,1005.6
2017-10-23T06:21:04.835Z,1005.6
2017-10-23T06:22:07.266Z,1005.6
2017-10-23T06:23:09.687Z,1005.7
2017-10-23T06:24:12.115Z,1005.7
2017-10-23T06:25:14.542Z,1005.6
2017-10-23T06:26:16.965Z,1005.7
2017-10-23T06:27:19.390Z,1005.7
2017-10-23T06:28:21.824Z,1005.7
2017-10-23T06:29:24.265Z,1005.6
2017-10-23T06:30:26.686Z,1005.7
2017-10-23T06:31:29.125Z,1005.7
2017-10-23T06:32:31.907Z,1005.7
2017-10-23T06:33:34.331Z,1005.7
2017-10-23T06:34:36.760Z,1005.7
2017-10-23T06:35:39.203Z,1005.7
2017-10-23T06:36:41.614Z,1005.7
2017-10-23T06:37:44.033Z,1005.7
2017-10-23T06:38:46.419Z,1005.7
2017-10-23T06:39:49.139Z,1005.7
2017-10-23T06:40:51.576Z,1005.7
2017-10-23T06:41:53.941Z,1005.7
2017-10-23T06:42:56.350Z,1005.7
2017-10-23T06:43:58.788Z,1005.7
2017-10-23T06:45:01.242Z,1005.7
2017-10-23T06:46:03.670Z,1005.7
2017-10-23T06:47:06.062Z,1005.7
2017-10-23T06:48:08.498Z,1005.7
2017-10-23T06:49:11.226Z,1005.8
2017-10-23T06:50:13.772Z,1005.8
2017-10-23T06:51:16.168Z,1005.8
2017-10-23T06:52:19.264Z,1005.7
2017-10-23T06:53:21.747Z,1005.8
2017-10-23T06:54:24.118Z,1005.8
2017-10-23T06:55:27.273Z,1005.8
2017-10-23T06:56:29.668Z,1005.8
2017-10-23T06:57:32.948Z,1005.8
2017-10-23T06:58:35.595Z,1005.8
2017-10-23T06:59:37.966Z,1005.8
2017-10-23T07:00:40.344Z,1005.8
2017-10-23T07:01:42.804Z,1005.8
2017-10-23T07:02:45.283Z,1005.8
2017-10-23T07:03:48.346Z,1005.8
2017-10-23T07:04:51.555Z,1005.8
2017-10-23T07:05:53.930Z,1005.8
2017-10-23T07:06:56.637Z,1005.8
2017-10-23T07:07:59.018Z,1005.8
2017-10-23T07:09:01.388Z,1005.8
2017-10-23T07:10:03.769Z,1005.8
2017-10-23T07:11:06.136Z,1005.9
2017-10-23T07:12:08.517Z,1005.9
2017-10-23T07:13:10.886Z,1005.9
2017-10-23T07:14:13.269Z,1005.9
2017-10-23T07:15:15.692Z,1005.8
2017-10-23T07:16:18.133Z,1005.8
2017-10-23T07:17:20.764Z,1005.8
2017-10-23T07:18:23.213Z,1005.9
2017-10-23T07:19:25.798Z,1005.9
2017-10-23T07:20:28.256Z,1005.8
2017-10-23T07:21:30.806Z,1005.8
2017-10-23T07:22:33.248Z,1005.9
2017-10-23T07:23:35.786Z,1005.9
2017-10-23T07:24:38.206Z,1005.8
2017-10-23T07:25:41.361Z,1005.8
2017-10-23T07:26:43.819Z,1005.9
2017-10-23T07:27:46.402Z,1005.8
2017-10-23T07:28:48.863Z,1005.9
2017-10-23T07:29:51.725Z,1005.9
2017-10-23T07:30:55.300Z,1005.9
2017-10-23T07:31:58.126Z,1005.9
2017-10-23T07:33:01.059Z,1005.9
2017-10-23T07:34:03.492Z,1006
2017-10-23T07:35:06.325Z,1006
2017-10-23T07:36:08.929Z,1006
2017-10-23T07:37:11.400Z,1006
2017-10-23T07:38:14.048Z,1005.9
2017-10-23T07:39:16.498Z,1006
2017-10-23T07:40:18.964Z,1006
2017-10-23T07:41:21.386Z,1005.9
2017-10-23T07:42:23.853Z,1006
2017-10-23T07:43:26.462Z,1006
2017-10-23T07:44:28.906Z,1006
2017-10-23T07:45:31.917Z,1006
2017-10-23T07:46:34.693Z,1006
2017-10-23T07:47:37.138Z,1006
2017-10-23T07:48:39.908Z,1006
2017-10-23T07:49:42.576Z,1006
2017-10-23T07:50:45.001Z,1006
2017-10-23T07:51:47.425Z,1006
2017-10-23T07:52:50.015Z,1006
2017-10-23T07:53:52.436Z,1006
2017-10-23T07:54:54.897Z,1006
2017-10-23T07:55:57.682Z,1006.1
2017-10-23T07:57:00.112Z,1006.1
2017-10-23T07:58:03.091Z,1006.1
2017-10-23T07:59:05.523Z,1006.1
2017-10-23T08:00:08.195Z,1006.1
2017-10-23T08:01:10.612Z,1006.1
2017-10-23T08:02:13.048Z,1006.1
2017-10-23T08:03:15.829Z,1006.1
2017-10-23T08:04:18.319Z,1006.2
2017-10-23T08:05:20.791Z,1006.2
2017-10-23T08:06:23.214Z,1006.2
2017-10-23T08:07:26.195Z,1006.2
2017-10-23T08:08:28.635Z,1006.1
2017-10-23T08:09:31.050Z,1006.1
2017-10-23T08:10:33.827Z,1006.1
2017-10-23T08:11:36.294Z,1006.1
2017-10-23T08:12:38.715Z,1006.1
2017-10-23T08:13:41.152Z,1006.1
2017-10-23T08:14:43.582Z,1006.1
2017-10-23T08:15:45.996Z,1006.2
2017-10-23T08:16:48.437Z,1006.1
2017-10-23T08:17:50.866Z,1006.1
2017-10-23T08:18:53.653Z,1006.2
2017-10-23T08:19:56.086Z,1006.2
2017-10-23T08:20:58.504Z,1006.2
2017-10-23T08:22:00.925Z,1006.2
2017-10-23T08:23:03.370Z,1006.2
2017-10-23T08:24:06.151Z,1006.2
2017-10-23T08:25:08.951Z,1006.2
2017-10-23T08:26:11.374Z,1006.2
2017-10-23T08:27:13.811Z,1006.2
2017-10-23T08:28:16.239Z,1006.2
2017-10-23T08:29:18.662Z,1006.2
2017-10-23T08:30:21.472Z,1006.2
2017-10-23T08:31:23.897Z,1006.2
2017-10-23T08:32:26.325Z,1006.2
2017-10-23T08:33:28.758Z,1006.2
2017-10-23T08:34:31.169Z,1006.2
2017-10-23T08:35:33.592Z,1006.3
2017-10-23T08:36:36.030Z,1006.3
2017-10-23T08:37:38.472Z,1006.3
2017-10-23T08:38:40.882Z,1006.2
2017-10-23T08:39:43.327Z,1006.3
2017-10-23T08:40:45.732Z,1006.2
2017-10-23T08:41:48.172Z,1006.3
2017-10-23T08:42:51.334Z,1006.3
2017-10-23T08:43:53.760Z,1006.3
2017-10-23T08:44:56.195Z,1006.3
2017-10-23T08:45:58.616Z,1006.3
2017-10-23T08:47:01.406Z,1006.3
2017-10-23T08:48:03.836Z,1006.4
2017-10-23T08:49:06.256Z,1006.3
2017-10-23T08:50:08.681Z,1006.3
2017-10-23T08:51:11.115Z,1006.4
2017-10-23T08:52:13.546Z,1006.4
2017-10-23T08:53:16.334Z,1006.4
2017-10-23T08:54:18.770Z,1006.4
2017-10-23T08:55:21.209Z,1006.4
2017-10-23T08:56:23.643Z,1006.4
2017-10-23T08:57:26.057Z,1006.4
2017-10-23T08:58:28.496Z,1006.4
2017-10-23T08:59:30.918Z,1006.4
2017-10-23T09:00:33.344Z,1006.4
2017-10-23T09:01:35.769Z,1006.4
2017-10-23T09:02:38.570Z,1006.5
2017-10-23T09:03:40.997Z,1006.4
2017-10-23T09:04:43.438Z,1006.4
2017-10-23T09:05:45.852Z,1006.4
2017-10-23T09:06:48.278Z,1006.5
2017-10-23T09:07:51.072Z,1006.5
2017-10-23T09:08:53.487Z,1006.5
2017-10-23T09:09:55.927Z,1006.5
2017-10-23T09:10:58.361Z,1006.5
2017-10-23T09:12:00.794Z,1006.5
2017-10-23T09:13:03.221Z,1006.5
2017-10-23T09:14:05.648Z,1006.5
2017-10-23T09:15:08.071Z,1006.5
2017-10-23T09:16:10.510Z,1006.5
2017-10-23T09:17:12.926Z,1006.5
2017-10-23T09:18:15.712Z,1006.5
2017-10-23T09:19:18.149Z,1006.5
2017-10-23T09:20:20.574Z,1006.5
2017-10-23T09:21:23.005Z,1006.5
2017-10-23T09:22:25.434Z,1006.5
2017-10-23T09:23:27.858Z,1006.5
2017-10-23T09:24:30.646Z,1006.6
2017-10-23T09:25:33.072Z,1006.5
2017-10-23T09:26:35.498Z,1006.6
2017-10-23T09:27:37.921Z,1006.5
2017-10-23T09:28:40.703Z,1006.6
2017-10-23T09:29:43.146Z,1006.6
2017-10-23T09:30:45.567Z,1006.6
2017-10-23T09:31:47.997Z,1006.6
2017-10-23T09:32:50.784Z,1006.6
2017-10-23T09:33:53.221Z,1006.6
2017-10-23T09:34:55.655Z,1006.6
2017-10-23T09:35:58.078Z,1006.5
2017-10-23T09:37:00.506Z,1006.6
2017-10-23T09:38:02.936Z,1006.6
2017-10-23T09:39:05.366Z,1006.6
2017-10-23T09:40:07.788Z,1006.6
2017-10-23T09:41:10.233Z,1006.6
2017-10-23T09:42:12.663Z,1006.6
2017-10-23T09:43:15.432Z,1006.6
2017-10-23T09:44:17.866Z,1006.6
2017-10-23T09:45:20.292Z,1006.6
2017-10-23T09:46:22.724Z,1006.6
2017-10-23T09:47:25.510Z,1006.6
2017-10-23T09:48:27.939Z,1006.6
2017-10-23T09:49:30.724Z,1006.6
2017-10-23T09:50:33.167Z,1006.6
2017-10-23T09:51:35.591Z,1006.6
2017-10-23T09:52:38.020Z,1006.6
2017-10-23T09:53:40.447Z,1006.6
2017-10-23T09:54:42.898Z,1006.7
2017-10-23T09:55:45.296Z,1006.7
2017-10-23T09:56:47.720Z,1006.7
2017-10-23T09:57:50.162Z,1006.7
2017-10-23T09:58:52.594Z,1006.8
2017-10-23T09:59:55.021Z,1006.7
2017-10-23T10:00:57.456Z,1006.7
2017-10-23T10:01:59.888Z,1006.7
2017-10-23T10:03:02.321Z,1006.8
2017-10-23T10:04:04.754Z,1006.8
2017-10-23T10:05:07.168Z,1006.7
2017-10-23T10:06:09.602Z,1006.8
2017-10-23T10:07:12.031Z,1006.8
2017-10-23T10:08:14.460Z,1006.8
2017-10-23T10:09:16.892Z,1006.8
2017-10-23T10:10:19.325Z,1006.8
2017-10-23T10:11:21.757Z,1006.8
2017-10-23T10:12:24.194Z,1006.8
2017-10-23T10:13:26.622Z,1006.8
2017-10-23T10:14:29.046Z,1006.8
2017-10-23T10:15:31.489Z,1006.9
2017-10-23T10:16:33.915Z,1006.9
2017-10-23T10:17:36.361Z,1006.8
2017-10-23T10:18:38.788Z,1006.9
2017-10-23T10:19:41.223Z,1006.9
2017-10-23T10:20:43.655Z,1006.9
2017-10-23T10:21:46.438Z,1006.9
2017-10-23T10:22:48.876Z,1006.9
2017-10-23T10:23:51.764Z,1006.9
2017-10-23T10:24:54.200Z,1006.9
2017-10-23T10:25:56.631Z,1007
2017-10-23T10:26:59.063Z,1006.9
2017-10-23T10:28:01.492Z,1007
2017-10-23T10:29:03.981Z,1007
2017-10-23T10:30:06.393Z,1007
2017-10-23T10:31:09.015Z,1007
2017-10-23T10:32:11.443Z,1007
2017-10-23T10:33:13.876Z,1007
2017-10-23T10:34:16.304Z,1007
2017-10-23T10:35:18.737Z,1007
2017-10-23T10:36:21.402Z,1007.1
2017-10-23T10:37:23.836Z,1007
2017-10-23T10:38:26.261Z,1007
2017-10-23T10:39:29.090Z,1007
2017-10-23T10:40:31.891Z,1007.1
2017-10-23T10:41:34.318Z,1007
2017-10-23T10:42:36.750Z,1007.1
2017-10-23T10:43:39.180Z,1007.1
2017-10-23T10:44:41.617Z,1007.1
2017-10-23T10:45:44.044Z,1007.1
2017-10-23T10:46:46.485Z,1007.2
2017-10-23T10:47:49.257Z,1007.1
2017-10-23T10:48:51.694Z,1007.1
2017-10-23T10:49:54.121Z,1007.1
2017-10-23T10:50:56.554Z,1007.1
2017-10-23T10:51:58.985Z,1007.1
2017-10-23T10:53:01.418Z,1007.1
2017-10-23T10:54:03.842Z,1007.1
2017-10-23T10:55:06.649Z,1007
2017-10-23T10:56:09.073Z,1007.1
2017-10-23T10:57:11.506Z,1007.1
2017-10-23T10:58:14.289Z,1007.1
2017-10-23T10:59:16.712Z,1007.1
2017-10-23T11:00:19.140Z,1007.1
2017-10-23T11:01:21.569Z,1007.1
2017-10-23T11:02:23.987Z,1007.1
2017-10-23T11:03:26.413Z,1007.2
2017-10-23T11:04:29.202Z,1007.2
2017-10-23T11:05:31.634Z,1007.2
2017-10-23T11:06:34.065Z,1007.2
2017-10-23T11:07:36.496Z,1007.2
2017-10-23T11:08:38.918Z,1007.2
2017-10-23T11:09:41.349Z,1007.2
2017-10-23T11:15:57.601Z,1007.3
2017-10-23T11:16:59.981Z,1007.2
2017-10-23T11:18:02.359Z,1007.2
2017-10-23T11:19:04.735Z,1007.3
2017-10-23T11:20:07.121Z,1007.2
2017-10-23T11:21:09.521Z,1007.3
2017-10-23T11:22:11.910Z,1007.3
2017-10-23T11:23:14.315Z,1007.2
2017-10-23T11:24:16.675Z,1007.2
2017-10-23T11:25:19.051Z,1007.3
2017-10-23T11:26:21.437Z,1007.3
2017-10-23T11:27:23.836Z,1007.3
2017-10-23T11:28:26.226Z,1007.3
2017-10-23T11:29:28.642Z,1007.3
2017-10-23T11:30:31.037Z,1007.3
2017-10-23T11:31:33.474Z,1007.3
2017-10-23T11:32:36.001Z,1007.3
2017-10-23T11:33:38.459Z,1007.3
2017-10-23T11:34:40.834Z,1007.3
2017-10-23T11:35:43.232Z,1007.3
2017-10-23T11:36:45.617Z,1007.3
2017-10-23T11:37:48.374Z,1007.3
2017-10-23T11:38:50.790Z,1007.3
2017-10-23T11:39:53.528Z,1007.3
2017-10-23T11:40:55.915Z,1007.4
2017-10-23T11:41:58.352Z,1007.3
2017-10-23T11:43:00.732Z,1007.4
2017-10-23T11:44:03.115Z,1007.3
2017-10-23T11:45:05.504Z,1007.4
2017-10-23T11:46:08.269Z,1007.3
2017-10-23T11:47:10.649Z,1007.4
2017-10-23T11:48:13.063Z,1007.4
2017-10-23T11:49:15.435Z,1007.3
2017-10-23T11:50:17.828Z,1007.4
2017-10-23T11:51:20.557Z,1007.4
2017-10-23T11:52:23.298Z,1007.4
2017-10-23T11:53:25.673Z,1007.4
2017-10-23T11:54:28.055Z,1007.4
2017-10-23T11:55:30.426Z,1007.4
2017-10-23T11:56:32.814Z,1007.4
2017-10-23T11:57:35.200Z,1007.4
2017-10-23T11:58:37.599Z,1007.5
2017-10-23T11:59:39.973Z,1007.5
2017-10-23T12:00:42.358Z,1007.5
2017-10-23T12:01:44.729Z,1007.4
2017-10-23T12:02:47.107Z,1007.5
2017-10-23T12:03:49.847Z,1007.5
2017-10-23T12:04:52.227Z,1007.5
2017-10-23T12:05:54.605Z,1007.6
2017-10-23T12:06:56.997Z,1007.5
2017-10-23T12:07:59.716Z,1007.6
2017-10-23T12:09:02.103Z,1007.6
2017-10-23T12:10:04.474Z,1007.6
2017-10-23T12:11:06.863Z,1007.6
2017-10-23T12:12:09.249Z,1007.6
2017-10-23T12:13:11.625Z,1007.6
2017-10-23T12:14:13.990Z,1007.6
2017-10-23T12:15:16.532Z,1007.6
2017-10-23T12:16:18.912Z,1007.6
2017-10-23T12:17:21.288Z,1007.6
2017-10-23T12:18:23.669Z,1007.6
2017-10-23T12:19:26.040Z,1007.6
2017-10-23T12:20:28.416Z,1007.6
2017-10-23T12:21:30.812Z,1007.6
2017-10-23T12:22:33.183Z,1007.6
2017-10-23T12:23:35.916Z,1007.7
2017-10-23T12:24:38.298Z,1007.6
2017-10-23T12:25:40.676Z,1007.6
2017-10-23T12:26:43.058Z,1007.7
2017-10-23T12:27:45.744Z,1007.6
2017-10-23T12:30:22.027Z,1007.7
2017-10-23T12:31:24.477Z,1007.7
2017-10-23T12:32:27.217Z,1007.7
2017-10-23T12:33:29.962Z,1007.7
2017-10-23T12:34:32.335Z,1007.7
2017-10-23T12:35:34.730Z,1007.7
2017-10-23T12:36:37.102Z,1007.7
2017-10-23T12:37:39.474Z,1007.7
2017-10-23T12:38:41.856Z,1007.7
2017-10-23T12:39:44.575Z,1007.7
2017-10-23T12:40:46.956Z,1007.7
2017-10-23T12:41:49.355Z,1007.7
2017-10-23T12:42:51.729Z,1007.7
2017-10-23T12:43:54.100Z,1007.7
2017-10-23T12:44:56.480Z,1007.8
2017-10-23T12:45:58.860Z,1007.7
2017-10-23T12:47:01.240Z,1007.7
2017-10-23T12:48:04.001Z,1007.8
2017-10-23T12:49:06.384Z,1007.8
2017-10-23T12:50:08.815Z,1007.8
2017-10-23T12:51:11.198Z,1007.7
2017-10-23T12:52:13.577Z,1007.8
2017-10-23T12:53:15.960Z,1007.8
2017-10-23T12:54:18.330Z,1007.8
2017-10-23T12:55:20.711Z,1007.8
2017-10-23T12:56:23.446Z,1007.8
2017-10-23T12:57:25.825Z,1007.8
2017-10-23T12:58:28.540Z,1007.8
2017-10-23T12:59:30.922Z,1007.8
2017-10-23T13:00:33.306Z,1007.8
2017-10-23T13:01:36.728Z,1007.8
2017-10-23T13:02:40.562Z,1007.8
2017-10-23T13:03:43.293Z,1007.8
2017-10-23T13:04:46.003Z,1007.8
2017-10-23T13:05:48.392Z,1007.8
2017-10-23T13:06:50.755Z,1007.8
2017-10-23T13:07:53.123Z,1007.8
2017-10-23T13:08:55.504Z,1007.9
2017-10-23T13:09:57.876Z,1007.9
2017-10-23T13:11:00.607Z,1007.9